Philo, CA

2:58 PM PDT on October 22, 2014 (GMT -0700)
Anderson Valley | Change Station
CLOSE
Current Station
Personal Weather Station
Location: Boonville, CA
Elevation: 410 ft
Nearby Weather Stations

Elev 410 ft 39.01 °N, 123.36 °W | Updated 7 minutes ago

Partly Cloudy
Partly Cloudy
66.9 °F
Feels Like 66.9 °F
N
6.0
Wind Variable Wind from West
Gusts 9.0 mph

Today
High -- | Low -- °F
--% Chance of Precip.
Yesterday
High -- | Low -- °F
Precip. -- in
7:31 AM 6:25 PM
Waning Crescent, 1% visible
Pressure 30.02 in
Visibility 10.0 miles
Clouds Clear
Dew Point 55 °F
Humidity 66%
Rainfall 0.00 in
Snow Depth Not available.
UV 5 out of 12
Pollen 3.90 out of 12
Air Quality Not available.
Flu Activity Sporadic
METAR KUKI 222056Z AUTO 00000KT 10SM CLR 21/09 A3004 RMK AO2 SLP166 T02110094 58022

More Conditions Fewer Conditions

Pressure 30.02 in
Visibility 10.0 miles
Clouds Clear
Dew Point 55 °F
Humidity 66%
Rainfall 0.00 in
Snow Depth Not available.
UV 5 out of 12
Pollen 3.90 out of 12
Air Quality Not available.
Flu Activity Sporadic
METAR KUKI 222056Z AUTO 00000KT 10SM CLR 21/09 A3004 RMK AO2 SLP166 T02110094 58022

More Conditions Fewer Conditions

10-Day Weather Forecast

Almanac

Astronomy

Oct. 22, 2014 Rise Set
Actual Time 7:31 AM PDT 6:25 PM PDT
Civil Twilight 7:03 AM PDT 6:52 PM PDT
Nautical Twilight 6:32 AM PDT 7:23 PM PDT
Astronomical Twilight 6:01 AM PDT 7:54 PM PDT
Moon 6:18 AM PDT 5:55 PM PDT
Length of Visible Light 11h 48m
Length of Day
10h 54m
Tomorrow will be 2m 23s shorter.
Waning Crescent, 1% of the Moon is Illuminated
Today
Waning Crescent
Oct 23
New
Oct 30
First Quarter
Nov 6
Full
Nov 14
Last Quarter

Today's Extremes

State Highs State Lows

Community

WunderPhotos

Upload Photos

1,764,047 photos uploaded!

WunderBlogs® & News

Nearby

Snow Depth

Station Depth Elevation
Ward Creek #3 0 in 6750 ft
Tahoe City Cross 0 in 6750 ft
Rubicon #2 0 in 7500 ft
Blue Lakes 0 in 8000 ft
Adin Mountain 0 in 6200 ft

Earthquake Activity

City Distance Mag. Time & Date
No recent earthquake activity has been reported nearby.
Minimum magnitude displayed is 2.5.

Coastal Water Temperatures

Place Temperature
Arena Cove, CA 60.1 °F
North Spit, CA 57.9 °F
Point Reyes, CA 62.1 °F
San Francisco, CA 63.0 °F
Richmond, CA 64.0 °F

Nearby Weather Stations